| time (UTC) | temp F | wind direction | speed knots | gust knots | rain 1hr in | rain 24hr in | rain mn in | humidity % | barometer mb |
| 20260510130014 | 70 | 106 | 0.0 | 0.9 | 0.00 | 0.00 | 0.00 | 69 | 1014.3 |
| 20260510124512 | 68 | 108 | 0.0 | 0.9 | 0.00 | 0.00 | 0.00 | 73 | 1014.6 |
| 20260510123008 | 68 | 108 | 0.0 | 0.0 | 0.00 | 0.00 | 0.00 | 85 | 1014.5 |
| 20260510121504 | 65 | 108 | 0.0 | 0.0 | 0.00 | 0.00 | 0.00 | 91 | 1014.2 |
| 20260510120059 | 62 | 108 | 0.0 | 0.0 | 0.00 | 0.00 | 0.00 | 96 | 1014.1 |
| 20260510114555 | 59 | 108 | 0.0 | 0.0 | 0.00 | 0.00 | 0.00 | 97 | 1014.0 |
| 20260510113052 | 58 | 108 | 0.0 | 0.0 | 0.00 | 0.00 | 0.00 | 98 | 1013.9 |
| 20260510111551 | 56 | 108 | 0.0 | 0.0 | 0.00 | 0.00 | 0.00 | 98 | 1013.7 |
| 20260510110049 | 52 | 108 | 0.0 | 0.0 | 0.00 | 0.00 | 0.00 | 98 | 1013.4 |
| 20260510104557 | 50 | 108 | 0.0 | 0.0 | 0.00 | 0.00 | 0.00 | 97 | 1013.1 |
| 20260510103045 | 50 | 108 | 0.0 | 0.0 | 0.00 | 0.00 | 0.00 | 98 | 1013.0 |
| 20260510101544 | 50 | 108 | 0.0 | 0.0 | 0.00 | 0.00 | 0.00 | 98 | 1012.8 |
| 20260510100042 | 50 | 108 | 0.0 | 0.0 | 0.00 | 0.00 | 0.00 | 98 | 1012.6 |
| 20260510094554 | 50 | 108 | 0.0 | 0.0 | 0.00 | 0.00 | 0.00 | 97 | 1012.5 |
| 20260510093054 | 50 | 108 | 0.0 | 0.0 | 0.00 | 0.00 | 0.00 | 98 | 1012.3 |
| 20260510091543 | 50 | 108 | 0.0 | 0.0 | 0.00 | 0.00 | 0.00 | 97 | 1012.3 |
| 20260510090037 | 50 | 108 | 0.0 | 0.0 | 0.00 | 0.00 | 0.00 | 97 | 1012.2 |
| 20260510084536 | 51 | 108 | 0.0 | 0.0 | 0.00 | 0.00 | 0.00 | 97 | 1012.2 |
| 20260510083034 | 50 | 108 | 0.0 | 0.0 | 0.00 | 0.00 | 0.00 | 96 | 1012.1 |
| 20260510081531 | 51 | 108 | 0.0 | 0.0 | 0.00 | 0.00 | 0.00 | 96 | 1012.2 |
| 20260510080029 | 52 | 108 | 0.0 | 0.0 | 0.00 | 0.00 | 0.00 | 97 | 1012.0 |
| 20260510074527 | 52 | 108 | 0.0 | 0.0 | 0.00 | 0.00 | 0.00 | 96 | 1011.9 |
| 20260510073035 | 52 | 108 | 0.0 | 0.0 | 0.00 | 0.00 | 0.00 | 96 | 1011.7 |
| 20260510071523 | 52 | 107 | 0.0 | 0.0 | 0.00 | 0.00 | 0.00 | 95 | 1011.4 |
| 20260510070028 | 53 | 108 | 0.0 | 0.0 | 0.00 | 0.00 | 0.00 | 96 | 1011.5 |
| 20260510064521 | 53 | 108 | 0.0 | 0.0 | 0.00 | 0.00 | 0.00 | 95 | 1011.4 |
| 20260510063018 | 53 | 108 | 0.0 | 0.0 | 0.00 | 0.00 | 0.00 | 95 | 1011.4 |
| 20260510061517 | 54 | 108 | 0.0 | 0.0 | 0.00 | 0.00 | 0.00 | 94 | 1011.3 |
| 20260510060016 | 54 | 108 | 0.0 | 0.0 | 0.00 | 0.00 | 0.00 | 93 | 1011.2 |
| 20260510054513 | 54 | 108 | 0.0 | 0.0 | 0.00 | 0.00 | 0.00 | 93 | 1011.3 |
| 20260510053008 | 54 | 108 | 0.0 | 0.0 | 0.00 | 0.00 | 0.00 | 92 | 1011.4 |
| 20260510051601 | 55 | 108 | 0.0 | 0.0 | 0.00 | 0.00 | 0.00 | 92 | 1011.3 |
| 20260510050103 | 56 | 108 | 0.0 | 0.0 | 0.00 | 0.00 | 0.00 | 89 | 1011.3 |
| 20260510044554 | 56 | 108 | 0.0 | 0.0 | 0.00 | 0.00 | 0.00 | 89 | 1011.2 |
| 20260510043100 | 57 | 108 | 0.0 | 0.0 | 0.00 | 0.00 | 0.00 | 88 | 1011.5 |
| 20260510041547 | 57 | 108 | 0.0 | 0.0 | 0.00 | 0.00 | 0.00 | 87 | 1011.4 |
| 20260510040044 | 58 | 108 | 0.0 | 0.0 | 0.00 | 0.00 | 0.00 | 87 | 1011.4 |
| 20260510034544 | 58 | 108 | 0.0 | 0.0 | 0.00 | 0.00 | 0.00 | 87 | 1011.3 |
| 20260510033043 | 57 | 99 | 0.0 | 0.0 | 0.00 | 0.00 | 0.00 | 88 | 1011.1 |
| 20260510031547 | 57 | 99 | 0.0 | 0.0 | 0.00 | 0.00 | 0.00 | 88 | 1011.0 |
| 20260510030046 | 57 | 99 | 0.0 | 0.0 | 0.00 | 0.00 | 0.00 | 86 | 1011.0 |
| 20260510024544 | 58 | 99 | 0.0 | 0.0 | 0.00 | 0.00 | 0.00 | 86 | 1010.8 |
| 20260510023040 | 58 | 99 | 0.0 | 0.0 | 0.00 | 0.00 | 0.00 | 85 | 1010.7 |
| 20260510021546 | 59 | 99 | 0.0 | 0.0 | 0.00 | 0.00 | 0.00 | 83 | 1010.6 |
| 20260510020039 | 59 | 99 | 0.0 | 0.0 | 0.00 | 0.00 | 0.00 | 82 | 1010.4 |
| 20260510014540 | 60 | 99 | 0.0 | 0.0 | 0.00 | 0.00 | 0.00 | 80 | 1010.2 |
| 20260510013046 | 60 | 99 | 0.0 | 0.0 | 0.00 | 0.00 | 0.00 | 79 | 1009.8 |
| 20260510011543 | 61 | 99 | 0.0 | 0.0 | 0.00 | 0.00 | 0.00 | 78 | 1009.7 |
| 20260510010037 | 62 | 99 | 0.0 | 0.0 | 0.00 | 0.00 | 0.00 | 76 | 1009.6 |
| 20260510004536 | 63 | 99 | 0.0 | 0.0 | 0.00 | 0.00 | 0.00 | 74 | 1009.4 |
| 20260510003037 | 64 | 99 | 0.0 | 0.0 | 0.00 | 0.00 | 0.00 | 71 | 1009.3 |
| 20260510001540 | 66 | 99 | 0.0 | 0.0 | 0.00 | 0.00 | 0.00 | 68 | 1009.2 |
| 20260510000046 | 68 | 99 | 0.0 | 0.9 | 0.00 | 0.00 | 0.00 | 66 | 1009.1 |
| 20260509234535 | 70 | 99 | 0.0 | 0.9 | 0.00 | 0.00 | 0.00 | 64 | 1008.9 |
| 20260509233033 | 71 | 101 | 0.0 | 2.6 | 0.00 | 0.00 | 0.00 | 61 | 1008.8 |
| 20260509231534 | 72 | 76 | 0.0 | 1.7 | 0.00 | 0.00 | 0.00 | 61 | 1008.9 |
| 20260509230034 | 73 | 89 | 0.0 | 0.9 | 0.00 | 0.00 | 0.00 | 58 | 1008.9 |
| 20260509224531 | 73 | 94 | 0.0 | 1.7 | 0.00 | 0.00 | 0.00 | 56 | 1008.7 |
| 20260509223031 | 74 | 113 | 0.0 | 2.6 | 0.00 | 0.00 | 0.00 | 55 | 1008.8 |
| 20260509221529 | 74 | 142 | 0.0 | 3.5 | 0.00 | 0.00 | 0.00 | 53 | 1008.8 |
| 20260509220033 | 75 | 113 | 0.0 | 3.5 | 0.00 | 0.00 | 0.00 | 53 | 1008.8 |
| 20260509214528 | 76 | 205 | 0.0 | 3.5 | 0.00 | 0.00 | 0.00 | 54 | 1008.8 |
| 20260509213032 | 76 | 93 | 0.0 | 3.5 | 0.00 | 0.00 | 0.00 | 52 | 1008.8 |
| 20260509211526 | 75 | 93 | 0.9 | 4.3 | 0.00 | 0.00 | 0.00 | 54 | 1008.6 |
| 20260509210027 | 75 | 135 | 0.0 | 2.6 | 0.00 | 0.00 | 0.00 | 55 | 1008.6 |
| 20260509204525 | 77 | 103 | 0.0 | 3.5 | 0.00 | 0.00 | 0.00 | 53 | 1008.5 |
| 20260509203025 | 77 | 169 | 0.0 | 3.5 | 0.00 | 0.00 | 0.00 | 55 | 1008.6 |
| 20260509201520 | 77 | 193 | 0.9 | 3.5 | 0.00 | 0.00 | 0.00 | 55 | 1008.7 |
| 20260509200019 | 75 | 167 | 0.9 | 5.2 | 0.00 | 0.00 | 0.00 | 56 | 1008.8 |
| 20260509194516 | 76 | 114 | 0.9 | 5.2 | 0.00 | 0.00 | 0.00 | 56 | 1009.1 |
| 20260509193024 | 76 | 114 | 0.9 | 4.3 | 0.00 | 0.00 | 0.00 | 58 | 1009.2 |
| 20260509191508 | 74 | 101 | 0.9 | 4.3 | 0.00 | 0.00 | 0.00 | 61 | 1009.7 |
| 20260509190006 | 71 | 72 | 0.0 | 2.6 | 0.00 | 0.00 | 0.00 | 65 | 1010.1 |
| 20260509184512 | 72 | 131 | 0.0 | 5.2 | 0.00 | 0.00 | 0.00 | 62 | 1010.3 |
| 20260509183003 | 73 | 30 | 0.9 | 6.1 | 0.00 | 0.00 | 0.00 | 63 | 1010.4 |
| 20260509181603 | 71 | 141 | 0.0 | 1.7 | 0.00 | 0.00 | 0.00 | 66 | 1010.5 |
| 20260509180100 | 72 | 127 | 0.0 | 3.5 | 0.00 | 0.00 | 0.00 | 64 | 1010.5 |
| 20260509174621 | 70 | 149 | 0.0 | 1.7 | 0.00 | 0.00 | 0.00 | 66 | 1010.5 |
| 20260509173100 | 71 | 120 | 0.9 | 7.8 | 0.00 | 0.00 | 0.00 | 63 | 1010.6 |
| 20260509171557 | 73 | 238 | 0.9 | 7.8 | 0.00 | 0.00 | 0.00 | 61 | 1010.7 |
| 20260509170052 | 70 | 120 | 1.7 | 5.2 | 0.00 | 0.00 | 0.00 | 66 | 1011.0 |
| 20260509164550 | 69 | 103 | 0.0 | 4.3 | 0.00 | 0.00 | 0.00 | 68 | 1011.2 |
| 20260509163051 | 69 | 155 | 2.6 | 5.2 | 0.00 | 0.00 | 0.00 | 66 | 1011.2 |
| 20260509161549 | 69 | 191 | 3.5 | 8.7 | 0.00 | 0.00 | 0.00 | 65 | 1011.3 |
| 20260509160048 | 70 | 94 | 1.7 | 7.0 | 0.00 | 0.00 | 0.00 | 63 | 1011.2 |
| 20260509154546 | 71 | 96 | 1.7 | 8.7 | 0.00 | 0.00 | 0.00 | 61 | 1011.2 |
| 20260509153054 | 70 | 78 | 1.7 | 6.1 | 0.00 | 0.00 | 0.00 | 63 | 1011.5 |
| 20260509151540 | 69 | 42 | 1.7 | 6.1 | 0.00 | 0.00 | 0.00 | 66 | 1011.8 |
| 20260509150039 | 68 | 136 | 0.9 | 5.2 | 0.00 | 0.00 | 0.00 | 65 | 1011.5 |
| 20260509144535 | 66 | 281 | 0.9 | 3.5 | 0.00 | 0.00 | 0.00 | 69 | 1012.0 |
| 20260509143032 | 66 | 105 | 1.7 | 5.2 | 0.00 | 0.00 | 0.00 | 69 | 1012.3 |
| 20260509141529 | 64 | 101 | 0.9 | 5.2 | 0.00 | 0.00 | 0.00 | 71 | 1012.3 |
| 20260509140025 | 63 | 89 | 0.0 | 3.5 | 0.00 | 0.00 | 0.00 | 72 | 1012.4 |
| 20260509134522 | 62 | 98 | 0.9 | 6.1 | 0.00 | 0.00 | 0.00 | 73 | 1012.6 |
| 20260509133019 | 61 | 104 | 0.9 | 7.0 | 0.00 | 0.00 | 0.00 | 73 | 1012.8 |
| 20260509131517 | 60 | 153 | 0.9 | 5.2 | 0.00 | 0.00 | 0.00 | 74 | 1012.7 |